sensor_id;sensor_type;location;lat;lon;timestamp;P1;durP1;ratioP1;P2;durP2;ratioP2
5022;SDS011;2530;47.990;7.866;2023-06-24T00:02:25;6.88;;;5.70;;
5022;SDS011;2530;47.990;7.866;2023-06-24T00:04:54;5.53;;;5.03;;
5022;SDS011;2530;47.990;7.866;2023-06-24T00:07:19;5.70;;;5.20;;
5022;SDS011;2530;47.990;7.866;2023-06-24T00:09:48;5.85;;;5.40;;
5022;SDS011;2530;47.990;7.866;2023-06-24T00:12:13;6.10;;;5.50;;
5022;SDS011;2530;47.990;7.866;2023-06-24T00:14:44;6.63;;;5.93;;
5022;SDS011;2530;47.990;7.866;2023-06-24T00:17:20;6.10;;;5.60;;
5022;SDS011;2530;47.990;7.866;2023-06-24T00:19:45;6.17;;;5.63;;
5022;SDS011;2530;47.990;7.866;2023-06-24T00:22:11;6.00;;;5.40;;
5022;SDS011;2530;47.990;7.866;2023-06-24T00:24:37;5.60;;;5.00;;
5022;SDS011;2530;47.990;7.866;2023-06-24T00:27:04;5.60;;;5.18;;
5022;SDS011;2530;47.990;7.866;2023-06-24T00:29:29;5.93;;;5.33;;
5022;SDS011;2530;47.990;7.866;2023-06-24T00:31:55;5.78;;;5.28;;
5022;SDS011;2530;47.990;7.866;2023-06-24T00:34:20;5.70;;;5.20;;
5022;SDS011;2530;47.990;7.866;2023-06-24T00:36:46;5.83;;;5.33;;
5022;SDS011;2530;47.990;7.866;2023-06-24T00:39:12;9.30;;;6.50;;
5022;SDS011;2530;47.990;7.866;2023-06-24T00:41:37;6.07;;;5.47;;
5022;SDS011;2530;47.990;7.866;2023-06-24T00:44:03;5.93;;;5.43;;
5022;SDS011;2530;47.990;7.866;2023-06-24T00:46:29;5.97;;;5.47;;
5022;SDS011;2530;47.990;7.866;2023-06-24T00:48:57;5.70;;;5.20;;
5022;SDS011;2530;47.990;7.866;2023-06-24T00:51:22;5.93;;;5.43;;
5022;SDS011;2530;47.990;7.866;2023-06-24T00:53:54;7.30;;;5.60;;
5022;SDS011;2530;47.990;7.866;2023-06-24T00:56:21;6.30;;;5.70;;
5022;SDS011;2530;47.990;7.866;2023-06-24T00:58:48;5.53;;;5.03;;
5022;SDS011;2530;47.990;7.866;2023-06-24T01:01:15;6.32;;;5.72;;
5022;SDS011;2530;47.990;7.866;2023-06-24T01:03:41;6.10;;;5.50;;
5022;SDS011;2530;47.990;7.866;2023-06-24T01:06:08;6.07;;;5.57;;
5022;SDS011;2530;47.990;7.866;2023-06-24T01:08:34;6.33;;;5.77;;
5022;SDS011;2530;47.990;7.866;2023-06-24T01:11:00;6.93;;;5.67;;
5022;SDS011;2530;47.990;7.866;2023-06-24T01:13:26;6.45;;;5.85;;
5022;SDS011;2530;47.990;7.866;2023-06-24T01:15:52;6.40;;;5.80;;
5022;SDS011;2530;47.990;7.866;2023-06-24T01:18:32;5.50;;;5.00;;
5022;SDS011;2530;47.990;7.866;2023-06-24T01:21:06;6.35;;;5.80;;
5022;SDS011;2530;47.990;7.866;2023-06-24T01:29:20;5.60;;;5.10;;
5022;SDS011;2530;47.990;7.866;2023-06-24T01:32:11;6.00;;;5.50;;
5022;SDS011;2530;47.990;7.866;2023-06-24T01:34:42;5.90;;;5.40;;
5022;SDS011;2530;47.990;7.866;2023-06-24T01:37:21;6.28;;;5.30;;
5022;SDS011;2530;47.990;7.866;2023-06-24T01:40:09;6.82;;;6.32;;
5022;SDS011;2530;47.990;7.866;2023-06-24T01:42:45;6.95;;;5.95;;
5022;SDS011;2530;47.990;7.866;2023-06-24T01:45:13;6.85;;;5.70;;
5022;SDS011;2530;47.990;7.866;2023-06-24T01:47:42;6.93;;;6.00;;
5022;SDS011;2530;47.990;7.866;2023-06-24T01:50:10;6.77;;;6.10;;
5022;SDS011;2530;47.990;7.866;2023-06-24T01:52:37;6.10;;;5.60;;
5022;SDS011;2530;47.990;7.866;2023-06-24T01:55:06;6.65;;;5.47;;
5022;SDS011;2530;47.990;7.866;2023-06-24T01:57:34;6.15;;;5.55;;
5022;SDS011;2530;47.990;7.866;2023-06-24T02:00:02;6.90;;;6.20;;
5022;SDS011;2530;47.990;7.866;2023-06-24T02:02:32;6.73;;;6.13;;
5022;SDS011;2530;47.990;7.866;2023-06-24T02:04:59;6.35;;;5.78;;
5022;SDS011;2530;47.990;7.866;2023-06-24T02:07:27;6.50;;;5.53;;
5022;SDS011;2530;47.990;7.866;2023-06-24T02:09:56;5.90;;;5.40;;
5022;SDS011;2530;47.990;7.866;2023-06-24T02:12:24;5.80;;;5.30;;
5022;SDS011;2530;47.990;7.866;2023-06-24T02:14:52;6.03;;;5.43;;
5022;SDS011;2530;47.990;7.866;2023-06-24T02:17:20;6.50;;;5.90;;
5022;SDS011;2530;47.990;7.866;2023-06-24T02:19:46;6.30;;;5.73;;
5022;SDS011;2530;47.990;7.866;2023-06-24T02:22:13;7.25;;;5.97;;
5022;SDS011;2530;47.990;7.866;2023-06-24T02:24:39;6.90;;;5.70;;
5022;SDS011;2530;47.990;7.866;2023-06-24T02:27:06;5.70;;;5.18;;
5022;SDS011;2530;47.990;7.866;2023-06-24T02:29:33;5.85;;;5.35;;
5022;SDS011;2530;47.990;7.866;2023-06-24T02:32:01;6.50;;;5.90;;
5022;SDS011;2530;47.990;7.866;2023-06-24T02:34:26;6.27;;;5.67;;
5022;SDS011;2530;47.990;7.866;2023-06-24T02:36:53;6.60;;;5.90;;
5022;SDS011;2530;47.990;7.866;2023-06-24T02:39:18;5.75;;;5.25;;
5022;SDS011;2530;47.990;7.866;2023-06-24T02:41:44;6.13;;;5.53;;
5022;SDS011;2530;47.990;7.866;2023-06-24T02:44:12;5.63;;;5.13;;
5022;SDS011;2530;47.990;7.866;2023-06-24T02:46:38;7.40;;;6.47;;
5022;SDS011;2530;47.990;7.866;2023-06-24T02:49:05;6.68;;;5.97;;
5022;SDS011;2530;47.990;7.866;2023-06-24T02:51:32;6.05;;;5.55;;
5022;SDS011;2530;47.990;7.866;2023-06-24T02:53:58;6.65;;;5.85;;
5022;SDS011;2530;47.990;7.866;2023-06-24T02:56:24;6.15;;;5.55;;
5022;SDS011;2530;47.990;7.866;2023-06-24T02:58:51;5.85;;;5.35;;
5022;SDS011;2530;47.990;7.866;2023-06-24T03:01:18;5.32;;;4.82;;
5022;SDS011;2530;47.990;7.866;2023-06-24T03:03:49;7.40;;;5.90;;
5022;SDS011;2530;47.990;7.866;2023-06-24T03:06:18;5.85;;;5.35;;
5022;SDS011;2530;47.990;7.866;2023-06-24T03:08:45;6.80;;;6.20;;
5022;SDS011;2530;47.990;7.866;2023-06-24T03:11:14;6.30;;;5.72;;
5022;SDS011;2530;47.990;7.866;2023-06-24T03:13:41;6.90;;;5.47;;
5022;SDS011;2530;47.990;7.866;2023-06-24T03:16:07;6.63;;;5.95;;
5022;SDS011;2530;47.990;7.866;2023-06-24T03:18:37;5.97;;;5.38;;
5022;SDS011;2530;47.990;7.866;2023-06-24T03:21:05;5.75;;;5.25;;
5022;SDS011;2530;47.990;7.866;2023-06-24T03:23:31;6.50;;;5.83;;
5022;SDS011;2530;47.990;7.866;2023-06-24T03:25:56;5.90;;;5.30;;
5022;SDS011;2530;47.990;7.866;2023-06-24T03:28:22;5.70;;;5.20;;
5022;SDS011;2530;47.990;7.866;2023-06-24T03:30:48;5.70;;;5.20;;
5022;SDS011;2530;47.990;7.866;2023-06-24T03:33:13;6.00;;;5.40;;
5022;SDS011;2530;47.990;7.866;2023-06-24T03:35:41;6.00;;;5.40;;
5022;SDS011;2530;47.990;7.866;2023-06-24T03:38:07;5.27;;;4.77;;
5022;SDS011;2530;47.990;7.866;2023-06-24T03:40:33;6.57;;;5.87;;
5022;SDS011;2530;47.990;7.866;2023-06-24T03:42:58;6.40;;;5.80;;
5022;SDS011;2530;47.990;7.866;2023-06-24T03:45:24;5.80;;;5.30;;
5022;SDS011;2530;47.990;7.866;2023-06-24T03:47:49;5.70;;;4.97;;
5022;SDS011;2530;47.990;7.866;2023-06-24T03:50:15;5.97;;;5.47;;
5022;SDS011;2530;47.990;7.866;2023-06-24T03:52:40;7.70;;;5.60;;
5022;SDS011;2530;47.990;7.866;2023-06-24T03:55:06;6.20;;;5.63;;
5022;SDS011;2530;47.990;7.866;2023-06-24T03:57:32;5.60;;;5.10;;
5022;SDS011;2530;47.990;7.866;2023-06-24T03:59:57;6.10;;;5.50;;
5022;SDS011;2530;47.990;7.866;2023-06-24T04:02:23;6.10;;;5.50;;
5022;SDS011;2530;47.990;7.866;2023-06-24T04:04:48;6.10;;;5.47;;
5022;SDS011;2530;47.990;7.866;2023-06-24T04:07:17;6.00;;;5.40;;
5022;SDS011;2530;47.990;7.866;2023-06-24T04:09:53;5.63;;;5.07;;
5022;SDS011;2530;47.990;7.866;2023-06-24T04:12:20;6.20;;;5.50;;
5022;SDS011;2530;47.990;7.866;2023-06-24T04:14:45;6.70;;;5.07;;
5022;SDS011;2530;47.990;7.866;2023-06-24T04:17:11;5.90;;;5.07;;
5022;SDS011;2530;47.990;7.866;2023-06-24T04:19:36;6.30;;;5.60;;
5022;SDS011;2530;47.990;7.866;2023-06-24T04:22:02;6.40;;;5.83;;
5022;SDS011;2530;47.990;7.866;2023-06-24T04:24:27;6.23;;;5.00;;
5022;SDS011;2530;47.990;7.866;2023-06-24T04:26:53;5.50;;;5.00;;
5022;SDS011;2530;47.990;7.866;2023-06-24T04:29:18;5.57;;;5.00;;
5022;SDS011;2530;47.990;7.866;2023-06-24T04:31:44;5.63;;;5.13;;
5022;SDS011;2530;47.990;7.866;2023-06-24T04:34:09;6.18;;;5.57;;
5022;SDS011;2530;47.990;7.866;2023-06-24T04:36:35;6.40;;;5.80;;
5022;SDS011;2530;47.990;7.866;2023-06-24T04:39:00;6.00;;;5.40;;
5022;SDS011;2530;47.990;7.866;2023-06-24T04:41:26;6.50;;;5.90;;
5022;SDS011;2530;47.990;7.866;2023-06-24T04:43:51;8.00;;;5.70;;
5022;SDS011;2530;47.990;7.866;2023-06-24T04:46:17;6.30;;;5.70;;
5022;SDS011;2530;47.990;7.866;2023-06-24T04:48:43;5.70;;;5.20;;
5022;SDS011;2530;47.990;7.866;2023-06-24T04:51:08;6.40;;;5.70;;
5022;SDS011;2530;47.990;7.866;2023-06-24T04:53:34;5.80;;;5.30;;
5022;SDS011;2530;47.990;7.866;2023-06-24T04:56:00;7.00;;;6.30;;
5022;SDS011;2530;47.990;7.866;2023-06-24T04:58:25;6.32;;;5.72;;
5022;SDS011;2530;47.990;7.866;2023-06-24T05:00:51;6.40;;;5.80;;
5022;SDS011;2530;47.990;7.866;2023-06-24T05:03:16;5.60;;;5.10;;
5022;SDS011;2530;47.990;7.866;2023-06-24T05:05:42;5.90;;;5.40;;
5022;SDS011;2530;47.990;7.866;2023-06-24T05:08:07;6.80;;;5.68;;
5022;SDS011;2530;47.990;7.866;2023-06-24T05:10:33;5.50;;;5.10;;
5022;SDS011;2530;47.990;7.866;2023-06-24T05:12:58;6.07;;;5.57;;
5022;SDS011;2530;47.990;7.866;2023-06-24T05:15:24;6.65;;;5.50;;
5022;SDS011;2530;47.990;7.866;2023-06-24T05:17:50;5.80;;;5.30;;
5022;SDS011;2530;47.990;7.866;2023-06-24T05:20:15;5.50;;;5.00;;
5022;SDS011;2530;47.990;7.866;2023-06-24T05:22:42;6.57;;;5.53;;
5022;SDS011;2530;47.990;7.866;2023-06-24T05:25:08;5.95;;;5.35;;
5022;SDS011;2530;47.990;7.866;2023-06-24T05:27:34;5.57;;;5.10;;
5022;SDS011;2530;47.990;7.866;2023-06-24T05:29:59;6.05;;;5.55;;
5022;SDS011;2530;47.990;7.866;2023-06-24T05:32:25;5.37;;;4.90;;
5022;SDS011;2530;47.990;7.866;2023-06-24T05:34:50;5.80;;;5.30;;
5022;SDS011;2530;47.990;7.866;2023-06-24T05:37:16;6.38;;;5.78;;
5022;SDS011;2530;47.990;7.866;2023-06-24T05:39:41;6.27;;;5.67;;
5022;SDS011;2530;47.990;7.866;2023-06-24T05:42:07;6.20;;;5.70;;
5022;SDS011;2530;47.990;7.866;2023-06-24T05:44:32;5.50;;;4.97;;
5022;SDS011;2530;47.990;7.866;2023-06-24T05:46:58;5.90;;;5.30;;
5022;SDS011;2530;47.990;7.866;2023-06-24T05:49:24;6.03;;;5.43;;
5022;SDS011;2530;47.990;7.866;2023-06-24T05:51:50;6.22;;;5.72;;
5022;SDS011;2530;47.990;7.866;2023-06-24T05:54:15;5.78;;;5.28;;
5022;SDS011;2530;47.990;7.866;2023-06-24T05:56:41;5.80;;;5.30;;
5022;SDS011;2530;47.990;7.866;2023-06-24T05:59:06;6.10;;;5.43;;
5022;SDS011;2530;47.990;7.866;2023-06-24T06:01:32;7.73;;;5.60;;
5022;SDS011;2530;47.990;7.866;2023-06-24T06:03:57;6.17;;;5.57;;
5022;SDS011;2530;47.990;7.866;2023-06-24T06:06:23;6.00;;;5.40;;
5022;SDS011;2530;47.990;7.866;2023-06-24T06:08:48;5.60;;;4.87;;
5022;SDS011;2530;47.990;7.866;2023-06-24T06:11:14;5.97;;;5.47;;
5022;SDS011;2530;47.990;7.866;2023-06-24T06:13:39;5.93;;;5.33;;
5022;SDS011;2530;47.990;7.866;2023-06-24T06:16:05;5.60;;;5.00;;
5022;SDS011;2530;47.990;7.866;2023-06-24T06:18:37;5.28;;;4.82;;
5022;SDS011;2530;47.990;7.866;2023-06-24T06:21:05;5.85;;;5.35;;
5022;SDS011;2530;47.990;7.866;2023-06-24T06:23:40;5.90;;;5.40;;
5022;SDS011;2530;47.990;7.866;2023-06-24T06:26:09;5.65;;;5.22;;
5022;SDS011;2530;47.990;7.866;2023-06-24T06:28:37;5.70;;;5.20;;
5022;SDS011;2530;47.990;7.866;2023-06-24T06:31:06;7.43;;;5.78;;
5022;SDS011;2530;47.990;7.866;2023-06-24T06:33:31;5.68;;;5.18;;
5022;SDS011;2530;47.990;7.866;2023-06-24T06:36:00;5.22;;;4.82;;
5022;SDS011;2530;47.990;7.866;2023-06-24T06:38:26;6.00;;;5.50;;
5022;SDS011;2530;47.990;7.866;2023-06-24T06:40:52;5.72;;;5.22;;
5022;SDS011;2530;47.990;7.866;2023-06-24T06:43:19;5.40;;;4.90;;
5022;SDS011;2530;47.990;7.866;2023-06-24T06:45:49;5.22;;;4.72;;
5022;SDS011;2530;47.990;7.866;2023-06-24T06:48:22;6.00;;;5.40;;
5022;SDS011;2530;47.990;7.866;2023-06-24T06:50:47;5.23;;;4.83;;
5022;SDS011;2530;47.990;7.866;2023-06-24T06:53:14;5.63;;;5.13;;
5022;SDS011;2530;47.990;7.866;2023-06-24T06:55:43;5.20;;;4.70;;
5022;SDS011;2530;47.990;7.866;2023-06-24T06:58:08;5.40;;;5.00;;
5022;SDS011;2530;47.990;7.866;2023-06-24T07:00:34;5.60;;;5.00;;
5022;SDS011;2530;47.990;7.866;2023-06-24T07:03:08;4.80;;;4.40;;
5022;SDS011;2530;47.990;7.866;2023-06-24T07:05:43;5.22;;;4.82;;
5022;SDS011;2530;47.990;7.866;2023-06-24T07:08:11;4.60;;;4.20;;
5022;SDS011;2530;47.990;7.866;2023-06-24T07:10:43;5.10;;;4.60;;
5022;SDS011;2530;47.990;7.866;2023-06-24T07:13:15;5.03;;;4.63;;
5022;SDS011;2530;47.990;7.866;2023-06-24T07:15:40;5.47;;;5.03;;
5022;SDS011;2530;47.990;7.866;2023-06-24T07:18:08;4.90;;;4.50;;
5022;SDS011;2530;47.990;7.866;2023-06-24T07:20:34;5.43;;;5.00;;
5022;SDS011;2530;47.990;7.866;2023-06-24T07:23:00;4.97;;;4.57;;
5022;SDS011;2530;47.990;7.866;2023-06-24T07:25:25;4.83;;;4.43;;
5022;SDS011;2530;47.990;7.866;2023-06-24T07:27:55;5.40;;;4.60;;
5022;SDS011;2530;47.990;7.866;2023-06-24T07:30:27;5.57;;;4.70;;
5022;SDS011;2530;47.990;7.866;2023-06-24T07:32:55;5.00;;;4.50;;
5022;SDS011;2530;47.990;7.866;2023-06-24T07:35:30;4.88;;;4.40;;
5022;SDS011;2530;47.990;7.866;2023-06-24T07:37:56;4.78;;;4.38;;
5022;SDS011;2530;47.990;7.866;2023-06-24T07:40:22;5.22;;;4.72;;
5022;SDS011;2530;47.990;7.866;2023-06-24T07:42:48;5.30;;;4.80;;
5022;SDS011;2530;47.990;7.866;2023-06-24T07:45:19;4.75;;;4.35;;
5022;SDS011;2530;47.990;7.866;2023-06-24T07:47:51;5.03;;;4.63;;
5022;SDS011;2530;47.990;7.866;2023-06-24T07:50:22;4.60;;;4.20;;
5022;SDS011;2530;47.990;7.866;2023-06-24T07:52:53;5.13;;;4.40;;
5022;SDS011;2530;47.990;7.866;2023-06-24T07:55:18;5.80;;;5.20;;
5022;SDS011;2530;47.990;7.866;2023-06-24T07:57:49;4.43;;;4.03;;
5022;SDS011;2530;47.990;7.866;2023-06-24T08:00:17;4.95;;;4.55;;
5022;SDS011;2530;47.990;7.866;2023-06-24T08:02:54;4.30;;;3.90;;
5022;SDS011;2530;47.990;7.866;2023-06-24T08:05:28;4.70;;;4.30;;
5022;SDS011;2530;47.990;7.866;2023-06-24T08:11:18;4.15;;;3.85;;
5022;SDS011;2530;47.990;7.866;2023-06-24T08:13:47;7.28;;;4.57;;
5022;SDS011;2530;47.990;7.866;2023-06-24T08:16:18;6.25;;;4.80;;
5022;SDS011;2530;47.990;7.866;2023-06-24T08:18:59;5.00;;;4.50;;
5022;SDS011;2530;47.990;7.866;2023-06-24T08:21:27;4.80;;;4.40;;
5022;SDS011;2530;47.990;7.866;2023-06-24T08:24:02;4.80;;;4.40;;
5022;SDS011;2530;47.990;7.866;2023-06-24T08:26:35;5.03;;;4.60;;
5022;SDS011;2530;47.990;7.866;2023-06-24T08:29:10;4.57;;;4.18;;
5022;SDS011;2530;47.990;7.866;2023-06-24T08:31:40;4.55;;;4.20;;
5022;SDS011;2530;47.990;7.866;2023-06-24T08:34:09;4.82;;;4.43;;
5022;SDS011;2530;47.990;7.866;2023-06-24T08:36:34;5.28;;;4.68;;
5022;SDS011;2530;47.990;7.866;2023-06-24T08:39:08;4.60;;;4.20;;
5022;SDS011;2530;47.990;7.866;2023-06-24T08:41:36;4.60;;;4.20;;
5022;SDS011;2530;47.990;7.866;2023-06-24T08:44:04;5.97;;;4.70;;
5022;SDS011;2530;47.990;7.866;2023-06-24T08:46:49;4.80;;;4.40;;
5022;SDS011;2530;47.990;7.866;2023-06-24T08:54:38;4.80;;;4.40;;
5022;SDS011;2530;47.990;7.866;2023-06-24T08:57:13;4.60;;;4.20;;
5022;SDS011;2530;47.990;7.866;2023-06-24T08:59:46;5.20;;;4.70;;
5022;SDS011;2530;47.990;7.866;2023-06-24T09:02:14;5.10;;;4.70;;
5022;SDS011;2530;47.990;7.866;2023-06-24T09:04:53;5.00;;;4.60;;
5022;SDS011;2530;47.990;7.866;2023-06-24T09:07:26;4.80;;;4.40;;
5022;SDS011;2530;47.990;7.866;2023-06-24T09:09:57;4.88;;;4.43;;
5022;SDS011;2530;47.990;7.866;2023-06-24T09:12:24;4.60;;;4.20;;
5022;SDS011;2530;47.990;7.866;2023-06-24T09:14:50;5.47;;;4.47;;
5022;SDS011;2530;47.990;7.866;2023-06-24T09:17:47;5.50;;;5.00;;
5022;SDS011;2530;47.990;7.866;2023-06-24T09:20:19;4.72;;;4.32;;
5022;SDS011;2530;47.990;7.866;2023-06-24T09:22:59;4.50;;;4.10;;
5022;SDS011;2530;47.990;7.866;2023-06-24T09:25:26;4.90;;;4.50;;
5022;SDS011;2530;47.990;7.866;2023-06-24T09:27:58;4.55;;;4.15;;
5022;SDS011;2530;47.990;7.866;2023-06-24T09:30:27;5.43;;;4.75;;
5022;SDS011;2530;47.990;7.866;2023-06-24T09:32:53;4.80;;;4.40;;
5022;SDS011;2530;47.990;7.866;2023-06-24T09:35:24;4.90;;;4.32;;
5022;SDS011;2530;47.990;7.866;2023-06-24T09:37:56;4.35;;;4.05;;
5022;SDS011;2530;47.990;7.866;2023-06-24T09:40:31;6.70;;;4.10;;
5022;SDS011;2530;47.990;7.866;2023-06-24T09:43:09;4.95;;;4.15;;
5022;SDS011;2530;47.990;7.866;2023-06-24T09:45:53;4.30;;;3.90;;
5022;SDS011;2530;47.990;7.866;2023-06-24T09:48:26;4.80;;;4.40;;
5022;SDS011;2530;47.990;7.866;2023-06-24T09:51:02;4.40;;;4.00;;
5022;SDS011;2530;47.990;7.866;2023-06-24T09:53:40;4.88;;;4.20;;
5022;SDS011;2530;47.990;7.866;2023-06-24T09:56:10;4.70;;;4.30;;
5022;SDS011;2530;47.990;7.866;2023-06-24T09:58:49;4.53;;;4.15;;
5022;SDS011;2530;47.990;7.866;2023-06-24T10:01:22;4.78;;;4.38;;
5022;SDS011;2530;47.990;7.866;2023-06-24T10:03:54;4.60;;;4.20;;
5022;SDS011;2530;47.990;7.866;2023-06-24T10:06:23;4.55;;;4.25;;
5022;SDS011;2530;47.990;7.866;2023-06-24T10:08:57;4.70;;;4.30;;
5022;SDS011;2530;47.990;7.866;2023-06-24T10:11:30;4.43;;;4.03;;
5022;SDS011;2530;47.990;7.866;2023-06-24T10:13:58;4.43;;;4.13;;
5022;SDS011;2530;47.990;7.866;2023-06-24T10:16:29;4.88;;;4.10;;
5022;SDS011;2530;47.990;7.866;2023-06-24T10:19:02;4.60;;;4.10;;
5022;SDS011;2530;47.990;7.866;2023-06-24T10:24:49;4.80;;;4.40;;
5022;SDS011;2530;47.990;7.866;2023-06-24T10:27:28;4.80;;;4.32;;
5022;SDS011;2530;47.990;7.866;2023-06-24T10:30:03;4.55;;;4.15;;
5022;SDS011;2530;47.990;7.866;2023-06-24T10:32:40;4.22;;;3.92;;
5022;SDS011;2530;47.990;7.866;2023-06-24T10:37:59;5.20;;;3.83;;
5022;SDS011;2530;47.990;7.866;2023-06-24T10:40:47;4.30;;;4.00;;
5022;SDS011;2530;47.990;7.866;2023-06-24T10:45:55;5.03;;;3.78;;
5022;SDS011;2530;47.990;7.866;2023-06-24T10:48:24;4.60;;;4.20;;
5022;SDS011;2530;47.990;7.866;2023-06-24T10:50:55;4.50;;;4.10;;
5022;SDS011;2530;47.990;7.866;2023-06-24T10:53:21;4.78;;;4.10;;
5022;SDS011;2530;47.990;7.866;2023-06-24T10:55:48;4.93;;;4.00;;
5022;SDS011;2530;47.990;7.866;2023-06-24T10:58:28;4.50;;;4.00;;
5022;SDS011;2530;47.990;7.866;2023-06-24T11:01:06;4.80;;;4.40;;
5022;SDS011;2530;47.990;7.866;2023-06-24T11:03:40;4.93;;;4.43;;
5022;SDS011;2530;47.990;7.866;2023-06-24T11:06:14;4.68;;;4.38;;
5022;SDS011;2530;47.990;7.866;2023-06-24T11:08:47;4.18;;;3.78;;
5022;SDS011;2530;47.990;7.866;2023-06-24T11:11:23;4.65;;;4.25;;
5022;SDS011;2530;47.990;7.866;2023-06-24T11:13:53;4.32;;;4.00;;
5022;SDS011;2530;47.990;7.866;2023-06-24T11:16:23;3.97;;;3.67;;
5022;SDS011;2530;47.990;7.866;2023-06-24T11:18:55;3.80;;;3.50;;
5022;SDS011;2530;47.990;7.866;2023-06-24T11:21:28;4.20;;;3.90;;
5022;SDS011;2530;47.990;7.866;2023-06-24T11:24:02;4.00;;;3.70;;
5022;SDS011;2530;47.990;7.866;2023-06-24T11:26:38;3.97;;;3.67;;
5022;SDS011;2530;47.990;7.866;2023-06-24T11:29:13;4.32;;;3.92;;
5022;SDS011;2530;47.990;7.866;2023-06-24T11:31:39;3.93;;;3.63;;
5022;SDS011;2530;47.990;7.866;2023-06-24T11:34:09;4.20;;;3.90;;
5022;SDS011;2530;47.990;7.866;2023-06-24T11:36:42;4.47;;;3.70;;
5022;SDS011;2530;47.990;7.866;2023-06-24T11:39:08;4.10;;;3.70;;
5022;SDS011;2530;47.990;7.866;2023-06-24T11:41:51;3.92;;;3.63;;
5022;SDS011;2530;47.990;7.866;2023-06-24T11:44:50;3.78;;;3.47;;
5022;SDS011;2530;47.990;7.866;2023-06-24T11:47:18;3.60;;;3.30;;
5022;SDS011;2530;47.990;7.866;2023-06-24T11:49:52;6.95;;;3.70;;
5022;SDS011;2530;47.990;7.866;2023-06-24T11:52:47;3.55;;;3.25;;
5022;SDS011;2530;47.990;7.866;2023-06-24T11:55:17;3.60;;;3.30;;
5022;SDS011;2530;47.990;7.866;2023-06-24T11:57:52;3.70;;;3.40;;
5022;SDS011;2530;47.990;7.866;2023-06-24T12:00:37;3.90;;;3.60;;
5022;SDS011;2530;47.990;7.866;2023-06-24T12:03:07;3.15;;;2.90;;
5022;SDS011;2530;47.990;7.866;2023-06-24T12:05:33;3.33;;;3.13;;
5022;SDS011;2530;47.990;7.866;2023-06-24T12:10:36;2.92;;;2.72;;
5022;SDS011;2530;47.990;7.866;2023-06-24T12:13:03;3.22;;;2.92;;
5022;SDS011;2530;47.990;7.866;2023-06-24T12:15:38;2.85;;;2.65;;
5022;SDS011;2530;47.990;7.866;2023-06-24T12:18:07;3.80;;;3.22;;
5022;SDS011;2530;47.990;7.866;2023-06-24T12:20:32;3.60;;;2.97;;
5022;SDS011;2530;47.990;7.866;2023-06-24T12:22:59;3.70;;;3.00;;
5022;SDS011;2530;47.990;7.866;2023-06-24T12:25:25;2.97;;;2.77;;
5022;SDS011;2530;47.990;7.866;2023-06-24T12:27:51;3.10;;;2.90;;
5022;SDS011;2530;47.990;7.866;2023-06-24T12:30:16;2.80;;;2.60;;
5022;SDS011;2530;47.990;7.866;2023-06-24T12:32:42;3.05;;;2.75;;
5022;SDS011;2530;47.990;7.866;2023-06-24T12:35:08;3.33;;;3.00;;
5022;SDS011;2530;47.990;7.866;2023-06-24T12:37:35;2.90;;;2.70;;
5022;SDS011;2530;47.990;7.866;2023-06-24T12:40:02;3.70;;;2.90;;
5022;SDS011;2530;47.990;7.866;2023-06-24T12:42:28;3.30;;;3.10;;
5022;SDS011;2530;47.990;7.866;2023-06-24T12:44:58;3.40;;;3.10;;
5022;SDS011;2530;47.990;7.866;2023-06-24T12:47:24;3.42;;;3.10;;
5022;SDS011;2530;47.990;7.866;2023-06-24T12:49:50;3.65;;;3.35;;
5022;SDS011;2530;47.990;7.866;2023-06-24T12:52:15;3.10;;;2.90;;
5022;SDS011;2530;47.990;7.866;2023-06-24T12:54:41;3.20;;;2.90;;
5022;SDS011;2530;47.990;7.866;2023-06-24T12:57:07;3.38;;;3.15;;
5022;SDS011;2530;47.990;7.866;2023-06-24T12:59:32;3.30;;;3.00;;
5022;SDS011;2530;47.990;7.866;2023-06-24T13:01:58;3.40;;;2.70;;
5022;SDS011;2530;47.990;7.866;2023-06-24T13:04:23;3.40;;;3.10;;
5022;SDS011;2530;47.990;7.866;2023-06-24T13:06:50;3.30;;;3.00;;
5022;SDS011;2530;47.990;7.866;2023-06-24T13:09:16;3.80;;;3.10;;
5022;SDS011;2530;47.990;7.866;2023-06-24T13:11:42;3.20;;;3.00;;
5022;SDS011;2530;47.990;7.866;2023-06-24T13:14:07;3.00;;;2.80;;
5022;SDS011;2530;47.990;7.866;2023-06-24T13:16:34;3.40;;;3.10;;
5022;SDS011;2530;47.990;7.866;2023-06-24T13:19:01;3.08;;;2.88;;
5022;SDS011;2530;47.990;7.866;2023-06-24T13:21:26;3.05;;;2.80;;
5022;SDS011;2530;47.990;7.866;2023-06-24T13:23:52;3.22;;;2.92;;
5022;SDS011;2530;47.990;7.866;2023-06-24T13:26:17;3.13;;;2.90;;
5022;SDS011;2530;47.990;7.866;2023-06-24T13:28:43;3.10;;;2.80;;
5022;SDS011;2530;47.990;7.866;2023-06-24T13:31:09;2.97;;;2.77;;
5022;SDS011;2530;47.990;7.866;2023-06-24T13:33:34;3.00;;;2.80;;
5022;SDS011;2530;47.990;7.866;2023-06-24T13:36:00;3.10;;;2.80;;
5022;SDS011;2530;47.990;7.866;2023-06-24T13:38:27;2.70;;;2.50;;
5022;SDS011;2530;47.990;7.866;2023-06-24T13:40:53;3.15;;;2.85;;
5022;SDS011;2530;47.990;7.866;2023-06-24T13:43:19;2.70;;;2.50;;
5022;SDS011;2530;47.990;7.866;2023-06-24T13:45:44;3.28;;;3.03;;
5022;SDS011;2530;47.990;7.866;2023-06-24T13:48:10;3.70;;;2.83;;
5022;SDS011;2530;47.990;7.866;2023-06-24T13:50:35;3.60;;;3.30;;
5022;SDS011;2530;47.990;7.866;2023-06-24T13:53:01;3.25;;;3.05;;
5022;SDS011;2530;47.990;7.866;2023-06-24T13:55:26;2.70;;;2.50;;
5022;SDS011;2530;47.990;7.866;2023-06-24T13:57:52;3.10;;;2.90;;
5022;SDS011;2530;47.990;7.866;2023-06-24T14:00:18;3.10;;;2.80;;
5022;SDS011;2530;47.990;7.866;2023-06-24T14:02:45;3.15;;;2.95;;
5022;SDS011;2530;47.990;7.866;2023-06-24T14:05:10;3.30;;;3.00;;
5022;SDS011;2530;47.990;7.866;2023-06-24T14:07:39;3.35;;;2.72;;
5022;SDS011;2530;47.990;7.866;2023-06-24T14:10:05;3.15;;;2.90;;
5022;SDS011;2530;47.990;7.866;2023-06-24T14:12:30;3.40;;;3.10;;
5022;SDS011;2530;47.990;7.866;2023-06-24T14:14:56;3.20;;;2.90;;
5022;SDS011;2530;47.990;7.866;2023-06-24T14:17:24;3.92;;;3.10;;
5022;SDS011;2530;47.990;7.866;2023-06-24T14:19:50;3.10;;;2.80;;
5022;SDS011;2530;47.990;7.866;2023-06-24T14:22:16;3.20;;;2.90;;
5022;SDS011;2530;47.990;7.866;2023-06-24T14:24:42;3.10;;;2.90;;
5022;SDS011;2530;47.990;7.866;2023-06-24T14:27:08;2.80;;;2.60;;
5022;SDS011;2530;47.990;7.866;2023-06-24T14:29:34;3.40;;;2.97;;
5022;SDS011;2530;47.990;7.866;2023-06-24T14:32:00;3.50;;;3.20;;
5022;SDS011;2530;47.990;7.866;2023-06-24T14:34:26;3.40;;;3.10;;
5022;SDS011;2530;47.990;7.866;2023-06-24T14:36:54;3.53;;;2.92;;
5022;SDS011;2530;47.990;7.866;2023-06-24T14:39:20;2.92;;;2.72;;
5022;SDS011;2530;47.990;7.866;2023-06-24T14:41:46;3.40;;;3.10;;
5022;SDS011;2530;47.990;7.866;2023-06-24T14:44:11;3.57;;;2.80;;
5022;SDS011;2530;47.990;7.866;2023-06-24T14:46:37;3.37;;;3.07;;
5022;SDS011;2530;47.990;7.866;2023-06-24T14:49:02;3.60;;;3.00;;
5022;SDS011;2530;47.990;7.866;2023-06-24T14:51:28;2.85;;;2.65;;
5022;SDS011;2530;47.990;7.866;2023-06-24T14:53:53;3.13;;;2.92;;
5022;SDS011;2530;47.990;7.866;2023-06-24T14:56:19;3.25;;;2.95;;
5022;SDS011;2530;47.990;7.866;2023-06-24T14:58:44;2.90;;;2.70;;
5022;SDS011;2530;47.990;7.866;2023-06-24T15:01:10;4.93;;;2.87;;
5022;SDS011;2530;47.990;7.866;2023-06-24T15:03:35;2.60;;;2.40;;
5022;SDS011;2530;47.990;7.866;2023-06-24T15:06:01;3.10;;;2.90;;
5022;SDS011;2530;47.990;7.866;2023-06-24T15:08:26;2.70;;;2.50;;
5022;SDS011;2530;47.990;7.866;2023-06-24T15:10:52;3.80;;;2.77;;
5022;SDS011;2530;47.990;7.866;2023-06-24T15:13:18;3.08;;;2.88;;
5022;SDS011;2530;47.990;7.866;2023-06-24T15:15:44;3.20;;;2.90;;
5022;SDS011;2530;47.990;7.866;2023-06-24T15:18:09;3.13;;;2.83;;
5022;SDS011;2530;47.990;7.866;2023-06-24T15:20:35;3.00;;;2.80;;
5022;SDS011;2530;47.990;7.866;2023-06-24T15:23:01;4.20;;;3.20;;
5022;SDS011;2530;47.990;7.866;2023-06-24T15:25:26;3.20;;;2.90;;
5022;SDS011;2530;47.990;7.866;2023-06-24T15:27:52;2.80;;;2.60;;
5022;SDS011;2530;47.990;7.866;2023-06-24T15:30:18;3.30;;;3.00;;
5022;SDS011;2530;47.990;7.866;2023-06-24T15:32:43;3.27;;;2.63;;
5022;SDS011;2530;47.990;7.866;2023-06-24T15:35:11;3.75;;;2.80;;
5022;SDS011;2530;47.990;7.866;2023-06-24T15:37:36;2.90;;;2.70;;
5022;SDS011;2530;47.990;7.866;2023-06-24T15:40:02;2.93;;;2.67;;
5022;SDS011;2530;47.990;7.866;2023-06-24T15:42:28;2.90;;;2.70;;
5022;SDS011;2530;47.990;7.866;2023-06-24T15:44:53;3.42;;;3.13;;
5022;SDS011;2530;47.990;7.866;2023-06-24T15:47:19;3.50;;;3.20;;
5022;SDS011;2530;47.990;7.866;2023-06-24T15:49:44;3.33;;;3.03;;